createdAt,value
2023-06-11T00:01:58.748Z,15.70
2023-06-11T00:04:27.331Z,15.70
2023-06-11T00:06:56.032Z,15.70
2023-06-11T00:09:24.530Z,15.70
2023-06-11T00:11:51.953Z,15.60
2023-06-11T00:14:19.328Z,15.60
2023-06-11T00:16:47.286Z,15.60
2023-06-11T00:19:14.443Z,15.60
2023-06-11T00:21:45.220Z,15.50
2023-06-11T00:24:16.799Z,15.50
2023-06-11T00:26:44.579Z,15.50
2023-06-11T00:29:11.916Z,15.40
2023-06-11T00:31:39.239Z,15.30
2023-06-11T00:34:07.026Z,15.30
2023-06-11T00:36:34.641Z,15.30
2023-06-11T00:39:02.926Z,15.20
2023-06-11T00:41:32.196Z,15.20
2023-06-11T00:43:59.576Z,15.20
2023-06-11T00:46:27.976Z,15.10
2023-06-11T00:48:55.803Z,15.10
2023-06-11T00:51:26.956Z,15.00
2023-06-11T00:53:54.901Z,15.00
2023-06-11T00:56:22.293Z,14.90
2023-06-11T00:58:51.527Z,14.90
2023-06-11T01:01:31.802Z,14.90
2023-06-11T01:04:02.153Z,14.80
2023-06-11T01:06:35.040Z,14.80
2023-06-11T01:09:04.282Z,14.80
2023-06-11T01:11:36.880Z,14.70
2023-06-11T01:14:04.308Z,14.60
2023-06-11T01:17:06.095Z,14.60
2023-06-11T01:19:54.384Z,14.60
2023-06-11T01:22:43.820Z,14.60
2023-06-11T01:25:39.272Z,14.50
2023-06-11T01:28:17.559Z,14.60
2023-06-11T01:30:51.387Z,14.50
2023-06-11T01:33:25.947Z,14.50
2023-06-11T01:35:59.662Z,14.50
2023-06-11T01:38:31.915Z,14.40
2023-06-11T01:41:00.502Z,14.40
2023-06-11T01:43:29.969Z,14.40
2023-06-11T01:45:57.486Z,14.40
2023-06-11T01:48:24.756Z,14.30
2023-06-11T01:50:51.998Z,14.30
2023-06-11T01:53:19.566Z,14.30
2023-06-11T01:55:46.861Z,14.30
2023-06-11T01:58:15.313Z,14.30
2023-06-11T02:00:42.469Z,14.30
2023-06-11T02:03:10.114Z,14.30
2023-06-11T02:05:37.559Z,14.30
2023-06-11T02:08:05.329Z,14.20
2023-06-11T02:10:32.794Z,14.20
2023-06-11T02:13:00.038Z,14.20
2023-06-11T02:15:27.399Z,14.20
2023-06-11T02:17:54.680Z,14.10
2023-06-11T02:20:21.995Z,14.10
2023-06-11T02:22:49.263Z,14.10
2023-06-11T02:25:16.535Z,14.10
2023-06-11T02:27:43.752Z,14.00
2023-06-11T02:30:11.645Z,14.00
2023-06-11T02:32:41.580Z,14.00
2023-06-11T02:35:09.706Z,13.90
2023-06-11T02:37:37.198Z,13.90
2023-06-11T02:40:04.990Z,13.90
2023-06-11T02:42:32.410Z,13.90
2023-06-11T02:44:59.751Z,13.80
2023-06-11T02:47:27.011Z,13.80
2023-06-11T02:49:54.283Z,13.80
2023-06-11T02:52:21.628Z,13.70
2023-06-11T02:54:48.981Z,13.70
2023-06-11T02:57:16.560Z,13.70
2023-06-11T02:59:44.053Z,13.70
2023-06-11T03:02:11.367Z,13.70
2023-06-11T03:04:40.218Z,13.60
2023-06-11T03:07:07.636Z,13.60
2023-06-11T03:09:34.808Z,13.60
2023-06-11T03:12:02.100Z,13.60
2023-06-11T03:14:29.406Z,13.60
2023-06-11T03:16:56.724Z,13.60
2023-06-11T03:19:23.866Z,13.60
2023-06-11T03:21:51.123Z,13.60
2023-06-11T03:24:18.561Z,13.70
2023-06-11T03:26:46.100Z,13.70
2023-06-11T03:29:13.461Z,13.70
2023-06-11T03:31:41.850Z,13.70
2023-06-11T03:34:09.274Z,13.80
2023-06-11T03:36:37.910Z,13.80
2023-06-11T03:39:05.290Z,13.90
2023-06-11T03:41:32.564Z,13.90
2023-06-11T03:44:01.056Z,13.90
2023-06-11T03:46:28.636Z,14.00
2023-06-11T03:48:56.057Z,14.00
2023-06-11T03:51:23.300Z,14.10
2023-06-11T03:53:52.030Z,14.20
2023-06-11T03:56:19.497Z,14.20
2023-06-11T03:58:46.836Z,14.30
2023-06-11T04:01:14.203Z,14.40
2023-06-11T04:03:41.540Z,14.50
2023-06-11T04:06:08.887Z,14.60
2023-06-11T04:08:36.225Z,14.70
2023-06-11T04:11:03.567Z,14.70
2023-06-11T04:13:31.011Z,14.80
2023-06-11T04:15:58.309Z,14.90
2023-06-11T04:18:25.649Z,15.00
2023-06-11T04:20:53.114Z,15.10
2023-06-11T04:23:21.541Z,15.20
2023-06-11T04:25:50.397Z,15.30
2023-06-11T04:28:17.614Z,15.40
2023-06-11T04:30:44.985Z,15.50
2023-06-11T04:33:13.287Z,15.70
2023-06-11T04:35:40.663Z,15.80
2023-06-11T04:38:08.420Z,15.90
2023-06-11T04:40:35.959Z,16.10
2023-06-11T04:43:03.699Z,16.30
2023-06-11T04:45:31.901Z,16.40
2023-06-11T04:47:59.746Z,16.60
2023-06-11T04:50:26.999Z,16.70
2023-06-11T04:52:54.997Z,16.90
2023-06-11T04:55:26.618Z,17.00
2023-06-11T04:57:55.959Z,17.20
2023-06-11T05:00:24.511Z,17.40
2023-06-11T05:02:53.396Z,17.60
2023-06-11T05:05:22.460Z,17.80
2023-06-11T05:07:49.992Z,17.90
2023-06-11T05:10:19.102Z,18.00
2023-06-11T05:12:46.282Z,18.20
2023-06-11T05:15:13.952Z,18.40
2023-06-11T05:17:41.310Z,18.60
2023-06-11T05:20:09.694Z,18.80
2023-06-11T05:22:37.320Z,18.90
2023-06-11T05:25:04.801Z,19.00
2023-06-11T05:27:33.127Z,19.20
2023-06-11T05:30:00.590Z,19.40
2023-06-11T05:32:32.713Z,19.60
2023-06-11T05:35:00.289Z,19.80
2023-06-11T05:37:27.530Z,20.00
2023-06-11T05:39:55.687Z,20.20
2023-06-11T05:42:23.038Z,20.30
2023-06-11T05:44:50.248Z,20.30
2023-06-11T05:47:17.708Z,20.60
2023-06-11T05:49:45.404Z,20.80
2023-06-11T05:52:12.637Z,20.90
2023-06-11T05:54:39.834Z,20.90
2023-06-11T05:57:09.693Z,20.90
2023-06-11T05:59:37.089Z,21.00
2023-06-11T06:02:04.556Z,21.30
2023-06-11T06:04:32.359Z,21.50
2023-06-11T06:06:59.577Z,21.60
2023-06-11T06:09:26.882Z,21.90
2023-06-11T06:11:54.334Z,22.00
2023-06-11T06:14:21.756Z,22.00
2023-06-11T06:16:49.157Z,22.10
2023-06-11T06:19:16.967Z,22.10
2023-06-11T06:21:44.604Z,22.00
2023-06-11T06:24:15.514Z,22.10
2023-06-11T06:26:45.354Z,22.10
2023-06-11T06:29:15.811Z,22.00
2023-06-11T06:31:43.144Z,22.20
2023-06-11T06:34:11.076Z,22.50
2023-06-11T06:36:39.164Z,22.60
2023-06-11T06:39:06.657Z,22.60
2023-06-11T06:41:34.133Z,22.50
2023-06-11T06:44:03.023Z,22.50
2023-06-11T06:46:31.985Z,22.70
2023-06-11T06:48:59.337Z,23.10
2023-06-11T06:51:26.869Z,23.60
2023-06-11T06:53:55.115Z,23.70
2023-06-11T06:56:23.355Z,23.80
2023-06-11T06:58:50.944Z,23.90
2023-06-11T07:01:18.301Z,24.00
2023-06-11T07:03:45.635Z,24.30
2023-06-11T07:06:13.066Z,24.60
2023-06-11T07:08:41.430Z,24.70
2023-06-11T07:11:09.052Z,24.80
2023-06-11T07:13:36.798Z,24.90
2023-06-11T07:16:04.256Z,24.80
2023-06-11T07:18:31.819Z,24.80
2023-06-11T07:20:59.180Z,24.90
2023-06-11T07:23:26.477Z,25.00
2023-06-11T07:25:54.030Z,24.70
2023-06-11T07:28:21.644Z,24.70
2023-06-11T07:30:49.763Z,24.50
2023-06-11T07:33:18.629Z,24.50
2023-06-11T07:35:48.236Z,24.60
2023-06-11T07:38:15.528Z,24.60
2023-06-11T07:40:42.858Z,24.40
2023-06-11T07:43:10.063Z,24.50
2023-06-11T07:45:37.489Z,24.60
2023-06-11T07:48:05.026Z,24.50
2023-06-11T07:50:32.336Z,24.20
2023-06-11T07:52:59.593Z,24.10
2023-06-11T07:55:26.866Z,24.40
2023-06-11T07:57:54.190Z,24.60
2023-06-11T08:00:22.383Z,24.70
2023-06-11T08:02:52.578Z,25.00
2023-06-11T08:05:21.183Z,25.10
2023-06-11T08:07:49.595Z,25.00
2023-06-11T08:10:17.250Z,24.80
2023-06-11T08:12:44.773Z,24.70
2023-06-11T08:15:12.205Z,24.70
2023-06-11T08:17:40.256Z,24.50
2023-06-11T08:20:09.005Z,24.60
2023-06-11T08:22:36.922Z,24.50
2023-06-11T08:25:04.580Z,24.70
2023-06-11T08:27:31.803Z,24.70
2023-06-11T08:29:59.237Z,24.40
2023-06-11T08:32:26.860Z,24.50
2023-06-11T08:34:54.627Z,24.60
2023-06-11T08:37:22.117Z,24.80
2023-06-11T08:39:49.380Z,24.90
2023-06-11T08:42:16.797Z,25.30
2023-06-11T08:44:44.044Z,25.40
2023-06-11T08:47:13.396Z,25.70
2023-06-11T08:49:43.718Z,26.10
2023-06-11T08:52:11.846Z,26.30
2023-06-11T08:54:39.114Z,26.40
2023-06-11T08:57:08.526Z,26.40
2023-06-11T08:59:35.860Z,26.60
2023-06-11T09:02:03.350Z,26.80
2023-06-11T09:04:31.341Z,26.80
2023-06-11T09:07:01.185Z,26.50
2023-06-11T09:09:28.760Z,26.40
2023-06-11T09:11:56.149Z,26.40
2023-06-11T09:14:23.615Z,26.00
2023-06-11T09:16:52.030Z,25.80
2023-06-11T09:19:21.454Z,25.70
2023-06-11T09:21:56.678Z,25.50
2023-06-11T09:24:26.150Z,25.40
2023-06-11T09:27:02.697Z,25.60
2023-06-11T09:29:33.534Z,25.80
2023-06-11T09:32:23.958Z,26.20
2023-06-11T09:34:57.717Z,26.70
2023-06-11T09:37:24.953Z,26.80
2023-06-11T09:39:52.503Z,26.60
2023-06-11T09:42:28.143Z,26.80
2023-06-11T09:45:00.598Z,26.90
2023-06-11T09:47:32.992Z,26.80
2023-06-11T09:50:00.763Z,26.80
2023-06-11T09:52:29.512Z,26.60
2023-06-11T09:54:57.933Z,26.10
2023-06-11T09:57:26.192Z,25.60
2023-06-11T09:59:54.248Z,25.20
2023-06-11T10:02:22.194Z,25.00
2023-06-11T10:04:49.636Z,25.00
2023-06-11T10:07:18.188Z,25.30
2023-06-11T10:09:47.479Z,25.70
2023-06-11T10:12:17.438Z,26.00
2023-06-11T10:14:54.605Z,26.40
2023-06-11T10:17:24.153Z,26.80
2023-06-11T10:19:53.705Z,27.10
2023-06-11T10:22:34.690Z,26.90
2023-06-11T10:25:06.780Z,26.40
2023-06-11T10:27:39.355Z,26.40
2023-06-11T10:30:09.066Z,26.70
2023-06-11T10:32:37.144Z,26.90
2023-06-11T10:35:08.732Z,27.20
2023-06-11T10:37:39.387Z,27.00
2023-06-11T10:40:08.649Z,26.70
2023-06-11T10:42:38.224Z,26.60
2023-06-11T10:45:10.916Z,26.70
2023-06-11T10:47:47.061Z,27.10
2023-06-11T10:50:16.669Z,27.30
2023-06-11T10:52:57.944Z,26.70
2023-06-11T10:55:30.944Z,26.20
2023-06-11T10:58:00.262Z,25.90
2023-06-11T11:00:34.109Z,26.20
2023-06-11T11:03:05.123Z,26.60
2023-06-11T11:05:35.031Z,26.60
2023-06-11T11:08:02.541Z,26.90
2023-06-11T11:10:31.142Z,27.10
2023-06-11T11:12:59.090Z,26.90
2023-06-11T11:15:26.569Z,26.60
2023-06-11T11:17:54.106Z,26.60
2023-06-11T11:20:21.611Z,26.50
2023-06-11T11:22:56.031Z,26.30
2023-06-11T11:25:31.281Z,26.10
2023-06-11T11:27:59.444Z,26.10
2023-06-11T11:30:29.921Z,26.30
2023-06-11T11:33:00.464Z,26.60
2023-06-11T11:35:30.023Z,26.90
2023-06-11T11:37:57.345Z,27.00
2023-06-11T11:40:24.874Z,27.00
2023-06-11T11:42:53.887Z,26.90
2023-06-11T11:45:23.344Z,26.70
2023-06-11T11:47:53.958Z,26.60
2023-06-11T11:50:28.930Z,26.50
2023-06-11T11:53:08.103Z,26.40
2023-06-11T11:55:44.802Z,26.10
2023-06-11T11:58:19.627Z,25.90
2023-06-11T12:00:54.866Z,25.70
2023-06-11T12:03:23.860Z,25.50
2023-06-11T12:06:03.033Z,25.30
2023-06-11T12:08:32.102Z,25.50
2023-06-11T12:11:00.399Z,25.60
2023-06-11T12:13:28.550Z,25.70
2023-06-11T12:15:56.046Z,25.70
2023-06-11T12:18:23.456Z,25.50
2023-06-11T12:20:51.130Z,25.50
2023-06-11T12:23:18.482Z,25.30
2023-06-11T12:25:46.953Z,25.10
2023-06-11T12:28:14.512Z,24.90
2023-06-11T12:30:43.098Z,24.90
2023-06-11T12:33:11.117Z,25.00
2023-06-11T12:35:38.930Z,25.10
2023-06-11T12:38:08.131Z,25.20
2023-06-11T12:40:35.641Z,25.30
2023-06-11T12:43:02.956Z,25.30
2023-06-11T12:45:32.081Z,25.50
2023-06-11T12:47:59.469Z,25.60
2023-06-11T12:50:28.183Z,25.50
2023-06-11T12:52:56.965Z,25.40
2023-06-11T12:55:25.850Z,25.40
2023-06-11T12:57:53.329Z,25.40
2023-06-11T13:00:20.915Z,25.40
2023-06-11T13:02:48.325Z,25.30
2023-06-11T13:05:16.294Z,25.00
2023-06-11T13:07:43.522Z,25.00
2023-06-11T13:10:12.440Z,25.00
2023-06-11T13:12:39.915Z,25.00
2023-06-11T13:15:07.716Z,24.80
2023-06-11T13:17:35.108Z,24.90
2023-06-11T13:20:02.323Z,24.80
2023-06-11T13:22:29.622Z,24.80
2023-06-11T13:24:57.313Z,24.80
2023-06-11T13:27:24.534Z,24.80
2023-06-11T13:29:51.882Z,24.80
2023-06-11T13:32:20.096Z,24.70
2023-06-11T13:34:47.407Z,24.60
2023-06-11T13:37:14.883Z,24.60
2023-06-11T13:39:42.449Z,24.70
2023-06-11T13:42:09.857Z,24.50
2023-06-11T13:44:37.214Z,24.50
2023-06-11T13:47:04.607Z,24.40
2023-06-11T13:49:32.340Z,24.40
2023-06-11T13:51:59.625Z,24.50
2023-06-11T13:54:29.717Z,24.50
2023-06-11T13:56:57.168Z,24.50
2023-06-11T13:59:24.612Z,24.50
2023-06-11T14:01:56.597Z,24.50
2023-06-11T14:04:23.994Z,24.50
2023-06-11T14:06:51.628Z,24.60
2023-06-11T14:09:18.882Z,24.60
2023-06-11T14:11:46.447Z,24.60
2023-06-11T14:14:14.019Z,24.60
2023-06-11T14:16:41.251Z,24.50
2023-06-11T14:19:10.547Z,24.40
2023-06-11T14:21:38.517Z,24.40
2023-06-11T14:24:06.174Z,24.40
2023-06-11T14:26:33.967Z,24.40
2023-06-11T14:29:01.265Z,24.20
2023-06-11T14:31:28.454Z,24.20
2023-06-11T14:33:57.001Z,24.20
2023-06-11T14:36:24.215Z,24.20
2023-06-11T14:38:51.572Z,24.20
2023-06-11T14:41:18.936Z,24.30
2023-06-11T14:43:46.227Z,24.40
2023-06-11T14:46:13.484Z,24.40
2023-06-11T14:48:40.985Z,24.30
2023-06-11T14:51:08.305Z,24.30
2023-06-11T14:53:36.796Z,24.30
2023-06-11T14:56:04.127Z,24.30
2023-06-11T14:58:31.637Z,24.30
2023-06-11T15:00:58.826Z,24.20
2023-06-11T15:03:26.069Z,24.10
2023-06-11T15:05:53.452Z,24.10
2023-06-11T15:08:20.889Z,24.10
2023-06-11T15:10:48.090Z,24.20
2023-06-11T15:13:15.487Z,24.20
2023-06-11T15:15:42.782Z,24.20
2023-06-11T15:18:10.134Z,24.20
2023-06-11T15:20:37.442Z,24.10
2023-06-11T15:23:04.787Z,24.20
2023-06-11T15:25:32.555Z,24.20
2023-06-11T15:28:00.137Z,24.20
2023-06-11T15:30:28.022Z,24.20
2023-06-11T15:32:57.448Z,24.20
2023-06-11T15:35:27.040Z,24.20
2023-06-11T15:37:54.485Z,24.30
2023-06-11T15:40:23.480Z,24.30
2023-06-11T15:42:51.209Z,24.30
2023-06-11T15:45:18.877Z,24.30
2023-06-11T15:47:46.284Z,24.40
2023-06-11T15:50:14.083Z,24.40
2023-06-11T15:52:42.231Z,24.30
2023-06-11T15:55:12.525Z,24.20
2023-06-11T15:57:40.390Z,24.20
2023-06-11T16:00:08.275Z,24.10
2023-06-11T16:02:35.716Z,24.10
2023-06-11T16:05:03.186Z,24.10
2023-06-11T16:07:30.595Z,24.10
2023-06-11T16:09:58.711Z,24.10
2023-06-11T16:12:26.057Z,24.10
2023-06-11T16:14:53.417Z,24.00
2023-06-11T16:17:23.467Z,24.00
2023-06-11T16:19:51.548Z,24.00
2023-06-11T16:22:19.600Z,24.00
2023-06-11T16:24:48.285Z,24.00
2023-06-11T16:27:17.189Z,23.90
2023-06-11T16:29:45.094Z,23.80
2023-06-11T16:32:14.101Z,23.80
2023-06-11T16:34:41.317Z,23.70
2023-06-11T16:37:08.987Z,23.70
2023-06-11T16:39:36.371Z,23.60
2023-06-11T16:42:04.059Z,23.60
2023-06-11T16:44:31.366Z,23.60
2023-06-11T16:46:58.816Z,23.50
2023-06-11T16:49:26.219Z,23.50
2023-06-11T16:51:53.552Z,23.40
2023-06-11T16:54:20.728Z,23.40
2023-06-11T16:56:48.165Z,23.40
2023-06-11T16:59:15.458Z,23.40
2023-06-11T17:01:43.334Z,23.30
2023-06-11T17:04:11.172Z,23.30
2023-06-11T17:06:38.863Z,23.30
2023-06-11T17:09:06.322Z,23.20
2023-06-11T17:11:33.691Z,23.20
2023-06-11T17:14:01.418Z,23.20
2023-06-11T17:16:28.952Z,23.10
2023-06-11T17:18:56.712Z,23.10
2023-06-11T17:21:25.071Z,23.00
2023-06-11T17:23:57.108Z,23.00
2023-06-11T17:26:24.594Z,22.90
2023-06-11T17:28:51.921Z,22.90
2023-06-11T17:31:20.677Z,22.80
2023-06-11T17:33:48.174Z,22.80
2023-06-11T17:36:16.920Z,22.80
2023-06-11T17:38:44.301Z,22.80
2023-06-11T17:41:12.014Z,22.70
2023-06-11T17:43:40.578Z,22.70
2023-06-11T17:46:07.882Z,22.70
2023-06-11T17:48:35.578Z,22.70
2023-06-11T17:51:02.869Z,22.60
2023-06-11T17:53:31.909Z,22.50
2023-06-11T17:55:59.458Z,22.50
2023-06-11T17:58:26.940Z,22.30
2023-06-11T18:00:54.446Z,22.30
2023-06-11T18:03:21.906Z,22.20
2023-06-11T18:05:49.339Z,22.20
2023-06-11T18:08:16.948Z,22.10
2023-06-11T18:10:44.420Z,22.00
2023-06-11T18:13:11.880Z,21.90
2023-06-11T18:15:42.362Z,21.90
2023-06-11T18:18:11.037Z,21.70
2023-06-11T18:20:38.379Z,21.70
2023-06-11T18:23:06.187Z,21.60
2023-06-11T18:25:33.722Z,21.50
2023-06-11T18:28:01.300Z,21.40
2023-06-11T18:30:28.703Z,21.40
2023-06-11T18:32:56.042Z,21.30
2023-06-11T18:35:23.537Z,21.20
2023-06-11T18:37:50.931Z,21.10
2023-06-11T18:40:18.296Z,21.00
2023-06-11T18:42:45.602Z,20.90
2023-06-11T18:45:12.977Z,20.80
2023-06-11T18:47:42.932Z,20.70
2023-06-11T18:50:11.796Z,20.60
2023-06-11T18:52:39.846Z,20.60
2023-06-11T18:55:07.631Z,20.40
2023-06-11T18:57:35.705Z,20.40
2023-06-11T19:00:04.152Z,20.30
2023-06-11T19:02:31.664Z,20.30
2023-06-11T19:04:59.825Z,20.20
2023-06-11T19:07:27.263Z,20.10
2023-06-11T19:09:54.537Z,20.00
2023-06-11T19:12:21.850Z,20.00
2023-06-11T19:14:49.026Z,19.90
2023-06-11T19:17:17.606Z,19.80
2023-06-11T19:19:45.495Z,19.70
2023-06-11T19:22:12.739Z,19.60
2023-06-11T19:24:40.002Z,19.50
2023-06-11T19:27:08.175Z,19.40
2023-06-11T19:29:35.721Z,19.30
2023-06-11T19:32:04.260Z,19.30
2023-06-11T19:34:31.973Z,19.20
2023-06-11T19:36:59.246Z,19.10
2023-06-11T19:39:26.621Z,19.00
2023-06-11T19:41:54.129Z,18.90
2023-06-11T19:44:22.421Z,18.90
2023-06-11T19:46:49.777Z,18.80
2023-06-11T19:49:17.347Z,18.70
2023-06-11T19:51:44.515Z,18.70
2023-06-11T19:54:15.941Z,18.60
2023-06-11T19:56:44.663Z,18.50
2023-06-11T19:59:14.877Z,18.50
2023-06-11T20:01:42.764Z,18.40
2023-06-11T20:04:10.117Z,18.40
2023-06-11T20:06:37.521Z,18.30
2023-06-11T20:09:05.123Z,18.30
2023-06-11T20:11:32.824Z,18.20
2023-06-11T20:14:00.177Z,18.20
2023-06-11T20:16:28.375Z,18.10
2023-06-11T20:18:55.717Z,18.10
2023-06-11T20:21:24.706Z,18.00
2023-06-11T20:23:52.335Z,17.90
2023-06-11T20:26:19.547Z,17.80
2023-06-11T20:28:46.768Z,17.80
2023-06-11T20:31:13.991Z,17.70
2023-06-11T20:33:41.257Z,17.60
2023-06-11T20:36:08.588Z,17.60
2023-06-11T20:38:35.805Z,17.50
2023-06-11T20:41:04.289Z,17.50
2023-06-11T20:43:31.803Z,17.40
2023-06-11T20:46:02.388Z,17.40
2023-06-11T20:48:36.156Z,17.30
2023-06-11T20:51:03.500Z,17.30
2023-06-11T20:53:34.648Z,17.20
2023-06-11T20:56:02.591Z,17.20
2023-06-11T20:58:29.867Z,17.20
2023-06-11T21:00:57.144Z,17.20
2023-06-11T21:03:24.820Z,17.20
2023-06-11T21:05:52.591Z,17.30
2023-06-11T21:08:21.684Z,17.40
2023-06-11T21:10:49.212Z,17.40
2023-06-11T21:13:16.549Z,17.40
2023-06-11T21:15:44.925Z,17.40
2023-06-11T21:18:12.310Z,17.40
2023-06-11T21:20:41.409Z,17.40
2023-06-11T21:23:08.705Z,17.40
2023-06-11T21:25:36.346Z,17.40
2023-06-11T21:28:03.577Z,17.40
2023-06-11T21:30:30.896Z,17.40
2023-06-11T21:32:58.243Z,17.30
2023-06-11T21:35:25.609Z,17.30
2023-06-11T21:37:52.889Z,17.30
2023-06-11T21:40:20.102Z,17.30
2023-06-11T21:42:47.402Z,17.20
2023-06-11T21:45:14.769Z,17.20
2023-06-11T21:47:42.438Z,17.20
2023-06-11T21:50:10.604Z,17.20
2023-06-11T21:52:39.407Z,17.10
2023-06-11T21:55:08.345Z,17.10
2023-06-11T21:57:36.017Z,17.00
2023-06-11T22:00:13.122Z,17.00
2023-06-11T22:02:42.917Z,17.00
2023-06-11T22:05:14.484Z,17.00
2023-06-11T22:07:41.875Z,17.00
2023-06-11T22:10:12.206Z,17.00
2023-06-11T22:12:42.948Z,17.00
2023-06-11T22:15:12.419Z,17.00
2023-06-11T22:17:40.921Z,17.00
2023-06-11T22:20:10.371Z,16.90
2023-06-11T22:22:43.867Z,16.80
2023-06-11T22:25:12.539Z,16.80
2023-06-11T22:27:41.840Z,16.70
2023-06-11T22:30:11.649Z,16.70
2023-06-11T22:32:40.290Z,16.70
2023-06-11T22:35:07.947Z,16.60
2023-06-11T22:37:37.346Z,16.60
2023-06-11T22:40:09.104Z,16.60
2023-06-11T22:42:36.532Z,16.50
2023-06-11T22:45:04.931Z,16.50
2023-06-11T22:47:34.545Z,16.50
2023-06-11T22:50:02.068Z,16.40
2023-06-11T22:52:31.066Z,16.40
2023-06-11T22:54:58.926Z,16.30
2023-06-11T22:57:26.182Z,16.30
2023-06-11T22:59:53.437Z,16.40
2023-06-11T23:02:20.771Z,16.30
2023-06-11T23:04:48.025Z,16.20
2023-06-11T23:07:18.651Z,16.20
2023-06-11T23:09:46.334Z,16.10
2023-06-11T23:12:13.704Z,16.10
2023-06-11T23:14:41.038Z,16.10
2023-06-11T23:17:10.891Z,16.00
2023-06-11T23:19:38.976Z,16.00
2023-06-11T23:22:08.912Z,16.00
2023-06-11T23:24:40.919Z,16.00
2023-06-11T23:27:10.692Z,15.90
2023-06-11T23:29:38.291Z,15.90
2023-06-11T23:32:06.181Z,15.90
2023-06-11T23:34:34.647Z,15.80
2023-06-11T23:37:02.093Z,15.80
2023-06-11T23:39:29.966Z,15.70
2023-06-11T23:41:57.169Z,15.70
2023-06-11T23:44:24.767Z,15.70
2023-06-11T23:46:52.035Z,15.60
2023-06-11T23:49:19.293Z,15.60
2023-06-11T23:51:46.940Z,15.60
2023-06-11T23:54:14.300Z,15.60
2023-06-11T23:56:41.631Z,15.50
2023-06-11T23:59:09.056Z,15.50
